createdAt,value
2022-12-23T00:00:13.353Z,9.52
2022-12-23T00:01:15.227Z,9.51
2022-12-23T00:02:16.693Z,9.48
2022-12-23T00:03:18.160Z,9.51
2022-12-23T00:04:19.510Z,9.56
2022-12-23T00:05:20.807Z,9.55
2022-12-23T00:06:22.050Z,9.59
2022-12-23T00:07:23.324Z,9.59
2022-12-23T00:08:27.559Z,9.57
2022-12-23T00:09:28.803Z,9.56
2022-12-23T00:10:30.176Z,9.54
2022-12-23T00:11:31.459Z,9.54
2022-12-23T00:12:32.703Z,9.59
2022-12-23T00:13:33.972Z,9.57
2022-12-23T00:14:35.227Z,9.57
2022-12-23T00:15:36.523Z,9.53
2022-12-23T00:16:37.956Z,9.53
2022-12-23T00:17:45.469Z,9.53
2022-12-23T00:18:46.696Z,9.59
2022-12-23T00:19:47.905Z,9.60
2022-12-23T00:20:49.164Z,9.60
2022-12-23T00:21:50.374Z,9.57
2022-12-23T00:22:51.594Z,9.56
2022-12-23T00:23:52.798Z,9.56
2022-12-23T00:24:54.133Z,9.59
2022-12-23T00:25:55.403Z,9.58
2022-12-23T00:26:56.617Z,9.61
2022-12-23T00:27:57.862Z,9.60
2022-12-23T00:28:59.098Z,9.58
2022-12-23T00:30:00.316Z,9.60
2022-12-23T00:31:02.607Z,9.60
2022-12-23T00:32:04.062Z,9.59
2022-12-23T00:33:05.366Z,9.60
2022-12-23T00:34:06.617Z,9.60
2022-12-23T00:35:08.029Z,9.61
2022-12-23T00:36:14.070Z,9.59
2022-12-23T00:37:15.364Z,9.60
2022-12-23T00:38:17.428Z,9.59
2022-12-23T00:39:18.709Z,9.60
2022-12-23T00:40:20.047Z,9.60
2022-12-23T00:41:21.281Z,9.60
2022-12-23T00:42:22.522Z,9.62
2022-12-23T00:43:23.868Z,9.63
2022-12-23T00:44:25.216Z,9.61
2022-12-23T00:45:26.620Z,9.60
2022-12-23T00:46:28.023Z,9.62
2022-12-23T00:47:29.367Z,9.61
2022-12-23T00:48:30.597Z,9.62
2022-12-23T00:49:31.836Z,9.61
2022-12-23T00:50:35.215Z,9.59
2022-12-23T00:51:36.501Z,9.59
2022-12-23T00:52:37.763Z,9.59
2022-12-23T00:53:38.948Z,9.58
2022-12-23T00:54:40.195Z,9.58
2022-12-23T00:55:41.488Z,9.60
2022-12-23T00:56:42.718Z,9.66
2022-12-23T00:57:43.945Z,9.66
2022-12-23T00:58:45.235Z,9.67
2022-12-23T00:59:46.489Z,9.66
2022-12-23T01:00:47.810Z,9.68
2022-12-23T01:01:49.302Z,9.66
2022-12-23T01:02:50.826Z,9.66
2022-12-23T01:03:52.221Z,9.66
2022-12-23T01:04:53.479Z,9.66
2022-12-23T01:05:57.196Z,9.68
2022-12-23T01:06:58.676Z,9.68
2022-12-23T01:07:59.928Z,9.72
2022-12-23T01:09:01.148Z,9.74
2022-12-23T01:10:02.385Z,9.75
2022-12-23T01:11:09.311Z,9.74
2022-12-23T01:12:10.583Z,9.75
2022-12-23T01:13:11.852Z,9.77
2022-12-23T01:14:13.121Z,9.78
2022-12-23T01:15:14.416Z,9.79
2022-12-23T01:16:17.848Z,9.78
2022-12-23T01:17:19.431Z,9.80
2022-12-23T01:18:20.717Z,9.80
2022-12-23T01:19:22.005Z,9.81
2022-12-23T01:20:23.497Z,9.84
2022-12-23T01:21:24.702Z,9.84
2022-12-23T01:22:25.956Z,9.84
2022-12-23T01:23:27.211Z,9.84
2022-12-23T01:24:32.066Z,9.84
2022-12-23T01:25:33.402Z,9.85
2022-12-23T01:26:34.896Z,9.85
2022-12-23T01:27:36.131Z,9.85
2022-12-23T01:28:37.396Z,9.88
2022-12-23T01:29:38.619Z,9.89
2022-12-23T01:30:39.893Z,9.90
2022-12-23T01:31:41.146Z,9.93
2022-12-23T01:32:42.415Z,9.93
2022-12-23T01:33:43.671Z,9.92
2022-12-23T01:34:44.999Z,9.95
2022-12-23T01:35:46.359Z,9.97
2022-12-23T01:36:47.615Z,9.98
2022-12-23T01:37:48.877Z,9.96
2022-12-23T01:38:50.307Z,9.98
2022-12-23T01:39:51.565Z,10.04
2022-12-23T01:40:52.813Z,10.03
2022-12-23T01:41:54.040Z,10.04
2022-12-23T01:42:55.300Z,10.06
2022-12-23T01:43:56.504Z,10.06
2022-12-23T01:44:59.433Z,10.07
2022-12-23T01:46:00.704Z,10.05
2022-12-23T01:47:11.569Z,10.04
2022-12-23T01:48:15.553Z,10.06
2022-12-23T01:49:16.792Z,10.08
2022-12-23T01:50:41.336Z,10.07
2022-12-23T01:51:42.785Z,10.08
2022-12-23T01:52:46.996Z,10.07
2022-12-23T01:53:50.298Z,10.08
2022-12-23T01:54:51.684Z,10.13
2022-12-23T01:55:55.872Z,10.16
2022-12-23T01:56:58.173Z,10.18
2022-12-23T01:58:10.080Z,10.20
2022-12-23T01:59:14.086Z,10.20
2022-12-23T02:00:15.751Z,10.19
2022-12-23T02:01:18.976Z,10.22
2022-12-23T02:02:21.227Z,10.21
2022-12-23T02:03:22.696Z,10.22
2022-12-23T02:04:25.184Z,10.22
2022-12-23T02:05:26.490Z,10.25
2022-12-23T02:06:30.625Z,10.26
2022-12-23T02:07:32.016Z,10.28
2022-12-23T02:08:33.290Z,10.29
2022-12-23T02:09:36.209Z,10.34
2022-12-23T02:10:57.712Z,10.36
2022-12-23T02:12:24.080Z,10.40
2022-12-23T02:13:31.260Z,10.47
2022-12-23T02:14:32.526Z,10.51
2022-12-23T02:15:41.512Z,10.53
2022-12-23T02:16:50.296Z,10.57
2022-12-23T02:17:51.559Z,10.60
2022-12-23T02:19:10.545Z,10.62
2022-12-23T02:20:29.174Z,10.68
2022-12-23T02:21:41.866Z,10.72
2022-12-23T02:22:58.440Z,10.76
2022-12-23T02:24:02.390Z,10.79
2022-12-23T02:25:12.581Z,10.82
2022-12-23T02:26:28.839Z,10.84
2022-12-23T02:27:31.670Z,10.86
2022-12-23T02:28:39.187Z,10.87
2022-12-23T02:29:59.219Z,10.96
2022-12-23T02:31:06.147Z,11.03
2022-12-23T02:32:24.725Z,11.05
2022-12-23T02:33:34.977Z,11.04
2022-12-23T02:34:40.256Z,11.05
2022-12-23T02:36:00.262Z,11.05
2022-12-23T02:37:16.883Z,11.09
2022-12-23T02:38:25.969Z,11.11
2022-12-23T02:39:30.339Z,11.15
2022-12-23T02:40:38.560Z,11.19
2022-12-23T02:41:57.134Z,11.17
2022-12-23T02:43:06.013Z,11.17
2022-12-23T02:44:15.277Z,11.15
2022-12-23T02:45:24.887Z,11.13
2022-12-23T02:46:41.273Z,11.14
2022-12-23T02:47:51.941Z,11.16
2022-12-23T02:49:12.976Z,11.18
2022-12-23T02:50:17.099Z,11.17
2022-12-23T02:51:21.612Z,11.23
2022-12-23T02:52:26.459Z,11.27
2022-12-23T02:53:30.605Z,11.30
2022-12-23T02:54:34.767Z,11.30
2022-12-23T02:55:38.199Z,11.38
2022-12-23T02:56:41.966Z,11.46
2022-12-23T02:57:45.346Z,11.61
2022-12-23T02:58:53.299Z,11.70
2022-12-23T02:59:54.737Z,11.79
2022-12-23T03:00:58.025Z,11.82
2022-12-23T03:02:00.632Z,11.81
2022-12-23T03:03:02.381Z,11.83
2022-12-23T03:04:06.560Z,11.86
2022-12-23T03:05:26.344Z,11.88
2022-12-23T03:06:39.203Z,11.87
2022-12-23T03:07:42.739Z,11.81
2022-12-23T03:08:44.538Z,11.88
2022-12-23T03:09:51.852Z,11.84
2022-12-23T03:10:56.133Z,11.83
2022-12-23T03:12:05.450Z,11.84
2022-12-23T03:13:25.577Z,11.83
2022-12-23T03:14:33.020Z,11.96
2022-12-23T03:15:34.358Z,11.91
2022-12-23T03:16:53.657Z,11.89
2022-12-23T03:18:13.556Z,11.85
2022-12-23T03:19:26.145Z,11.83
2022-12-23T03:20:33.241Z,11.79
2022-12-23T03:21:42.161Z,11.81
2022-12-23T03:22:50.517Z,11.77
2022-12-23T03:23:55.961Z,11.82
2022-12-23T03:25:06.644Z,11.87
2022-12-23T03:26:19.270Z,11.92
2022-12-23T03:27:38.108Z,11.92
2022-12-23T03:28:42.811Z,11.90
2022-12-23T03:29:53.637Z,11.88
2022-12-23T03:30:57.304Z,11.83
2022-12-23T03:32:00.425Z,11.82
2022-12-23T03:33:04.547Z,11.82
2022-12-23T03:34:08.025Z,11.85
2022-12-23T03:35:11.137Z,11.84
2022-12-23T03:36:19.393Z,11.88
2022-12-23T03:37:22.310Z,11.84
2022-12-23T03:38:23.942Z,11.90
2022-12-23T03:39:34.290Z,11.91
2022-12-23T03:40:41.379Z,11.86
2022-12-23T03:41:45.162Z,11.89
2022-12-23T03:42:48.594Z,11.88
2022-12-23T03:43:53.449Z,11.84
2022-12-23T03:45:19.700Z,11.83
2022-12-23T03:46:30.556Z,11.78
2022-12-23T03:47:34.046Z,11.80
2022-12-23T03:48:41.499Z,11.79
2022-12-23T03:49:46.298Z,11.74
2022-12-23T03:50:49.950Z,11.71
2022-12-23T03:51:58.747Z,11.69
2022-12-23T03:53:18.567Z,11.66
2022-12-23T03:54:24.401Z,11.61
2022-12-23T03:55:29.282Z,11.61
2022-12-23T03:56:48.559Z,11.61
2022-12-23T03:58:00.324Z,11.58
2022-12-23T03:59:06.395Z,11.63
2022-12-23T04:00:07.933Z,11.64
2022-12-23T04:01:18.461Z,11.63
2022-12-23T04:02:31.560Z,11.60
2022-12-23T04:03:38.901Z,11.57
2022-12-23T04:04:49.635Z,11.63
2022-12-23T04:05:57.466Z,11.70
2022-12-23T04:07:07.219Z,11.66
2022-12-23T04:08:13.521Z,11.64
2022-12-23T04:09:21.735Z,11.60
2022-12-23T04:10:24.213Z,11.55
2022-12-23T04:11:25.544Z,11.57
2022-12-23T04:12:27.263Z,11.56
2022-12-23T04:13:28.761Z,11.53
2022-12-23T04:14:30.204Z,11.53
2022-12-23T04:15:31.536Z,11.54
2022-12-23T04:16:34.224Z,11.50
2022-12-23T04:17:35.560Z,11.51
2022-12-23T04:18:36.828Z,11.51
2022-12-23T04:19:38.044Z,11.46
2022-12-23T04:20:39.250Z,11.51
2022-12-23T04:21:40.462Z,11.47
2022-12-23T04:22:41.717Z,11.46
2022-12-23T04:23:43.023Z,11.47
2022-12-23T04:24:44.265Z,11.48
2022-12-23T04:25:45.530Z,11.47
2022-12-23T04:26:46.857Z,11.44
2022-12-23T04:27:48.077Z,11.45
2022-12-23T04:28:49.275Z,11.45
2022-12-23T04:29:50.486Z,11.48
2022-12-23T04:30:51.701Z,11.54
2022-12-23T04:31:53.056Z,11.52
2022-12-23T04:32:54.386Z,11.49
2022-12-23T04:33:55.680Z,11.50
2022-12-23T04:34:57.125Z,11.51
2022-12-23T04:36:01.406Z,11.48
2022-12-23T04:37:02.737Z,11.46
2022-12-23T04:38:04.193Z,11.44
2022-12-23T04:39:05.395Z,11.40
2022-12-23T04:40:06.877Z,11.40
2022-12-23T04:41:08.154Z,11.44
2022-12-23T04:42:09.420Z,11.42
2022-12-23T04:43:10.617Z,11.39
2022-12-23T04:44:11.824Z,11.37
2022-12-23T04:45:13.040Z,11.36
2022-12-23T04:46:14.322Z,11.36
2022-12-23T04:47:15.608Z,11.35
2022-12-23T04:48:17.098Z,11.33
2022-12-23T04:49:18.350Z,11.34
2022-12-23T04:50:19.615Z,11.39
2022-12-23T04:51:20.870Z,11.33
2022-12-23T04:52:22.241Z,11.31
2022-12-23T04:53:23.440Z,11.27
2022-12-23T04:54:24.689Z,11.25
2022-12-23T04:55:25.919Z,11.24
2022-12-23T04:56:27.175Z,11.21
2022-12-23T04:57:28.500Z,11.19
2022-12-23T04:58:29.724Z,11.30
2022-12-23T04:59:31.191Z,11.33
2022-12-23T05:00:38.920Z,11.34
2022-12-23T05:01:41.034Z,11.36
2022-12-23T05:02:42.508Z,11.35
2022-12-23T05:03:43.787Z,11.45
2022-12-23T05:04:45.088Z,11.47
2022-12-23T05:05:46.688Z,11.49
2022-12-23T05:06:47.981Z,11.45
2022-12-23T05:07:49.967Z,11.41
2022-12-23T05:08:51.255Z,11.38
2022-12-23T05:09:52.505Z,11.35
2022-12-23T05:10:53.998Z,11.36
2022-12-23T05:11:55.228Z,11.34
2022-12-23T05:12:56.459Z,11.31
2022-12-23T05:13:57.722Z,11.32
2022-12-23T05:14:58.961Z,11.31
2022-12-23T05:16:00.274Z,11.28
2022-12-23T05:17:07.076Z,11.29
2022-12-23T05:18:08.785Z,11.30
2022-12-23T05:19:10.351Z,11.30
2022-12-23T05:20:11.630Z,11.30
2022-12-23T05:21:12.950Z,11.30
2022-12-23T05:22:14.180Z,11.32
2022-12-23T05:23:15.637Z,11.32
2022-12-23T05:24:16.865Z,11.30
2022-12-23T05:25:18.096Z,11.28
2022-12-23T05:26:19.379Z,11.29
2022-12-23T05:27:20.641Z,11.27
2022-12-23T05:28:22.629Z,11.29
2022-12-23T05:29:23.903Z,11.28
2022-12-23T05:30:25.277Z,11.31
2022-12-23T05:31:26.546Z,11.32
2022-12-23T05:32:27.841Z,11.31
2022-12-23T05:33:29.546Z,11.29
2022-12-23T05:34:30.841Z,11.31
2022-12-23T05:35:32.116Z,11.31
2022-12-23T05:36:33.406Z,11.29
2022-12-23T05:37:34.655Z,11.29
2022-12-23T05:38:35.896Z,11.25
2022-12-23T05:39:37.126Z,11.23
2022-12-23T05:40:38.373Z,11.21
2022-12-23T05:41:39.902Z,11.21
2022-12-23T05:42:41.310Z,11.19
2022-12-23T05:43:42.703Z,11.19
2022-12-23T05:44:43.944Z,11.22
2022-12-23T05:45:45.583Z,11.21
2022-12-23T05:46:46.837Z,11.23
2022-12-23T05:47:48.195Z,11.20
2022-12-23T05:48:49.483Z,11.19
2022-12-23T05:49:50.723Z,11.18
2022-12-23T05:50:52.907Z,11.19
2022-12-23T05:51:54.140Z,11.16
2022-12-23T05:52:55.442Z,11.17
2022-12-23T05:53:56.734Z,11.16
2022-12-23T05:54:57.979Z,11.16
2022-12-23T05:55:59.190Z,11.13
2022-12-23T05:57:00.398Z,11.11
2022-12-23T05:58:02.083Z,11.13
2022-12-23T05:59:03.296Z,11.12
2022-12-23T06:00:04.743Z,11.12
2022-12-23T06:01:13.625Z,11.11
2022-12-23T06:02:15.173Z,11.13
2022-12-23T06:03:16.640Z,11.12
2022-12-23T06:04:18.238Z,11.14
2022-12-23T06:05:19.516Z,11.13
2022-12-23T06:06:20.728Z,11.16
2022-12-23T06:07:22.015Z,11.17
2022-12-23T06:08:23.282Z,11.19
2022-12-23T06:09:24.534Z,11.18
2022-12-23T06:10:25.789Z,11.19
2022-12-23T06:11:27.293Z,11.22
2022-12-23T06:12:28.569Z,11.20
2022-12-23T06:13:29.904Z,11.20
2022-12-23T06:14:31.158Z,11.23
2022-12-23T06:15:32.407Z,11.21
2022-12-23T06:16:33.758Z,11.20
2022-12-23T06:17:35.081Z,11.20
2022-12-23T06:18:36.378Z,11.18
2022-12-23T06:19:37.646Z,11.17
2022-12-23T06:20:38.905Z,11.17
2022-12-23T06:21:40.139Z,11.18
2022-12-23T06:22:41.351Z,11.17
2022-12-23T06:23:42.541Z,11.16
2022-12-23T06:24:44.329Z,11.15
2022-12-23T06:25:45.593Z,11.17
2022-12-23T06:26:48.092Z,11.16
2022-12-23T06:27:52.106Z,11.19
2022-12-23T06:28:53.424Z,11.17
2022-12-23T06:29:54.707Z,11.17
2022-12-23T06:30:56.621Z,11.17
2022-12-23T06:31:57.985Z,11.16
2022-12-23T06:32:59.307Z,11.14
2022-12-23T06:34:00.517Z,11.14
2022-12-23T06:35:01.796Z,11.13
2022-12-23T06:36:03.155Z,11.14
2022-12-23T06:37:04.392Z,11.13
2022-12-23T06:38:11.681Z,11.12
2022-12-23T06:39:13.393Z,11.11
2022-12-23T06:40:14.671Z,11.09
2022-12-23T06:41:15.937Z,11.08
2022-12-23T06:42:17.188Z,11.12
2022-12-23T06:43:19.408Z,11.12
2022-12-23T06:44:20.830Z,11.09
2022-12-23T06:45:25.186Z,11.08
2022-12-23T06:46:26.456Z,11.08
2022-12-23T06:47:27.717Z,11.07
2022-12-23T06:48:29.024Z,11.06
2022-12-23T06:49:30.240Z,11.04
2022-12-23T06:50:31.477Z,11.04
2022-12-23T06:51:32.918Z,11.06
2022-12-23T06:52:34.315Z,11.05
2022-12-23T06:53:35.543Z,11.04
2022-12-23T06:54:36.765Z,11.05
2022-12-23T06:55:38.221Z,11.05
2022-12-23T06:56:39.726Z,11.04
2022-12-23T06:57:41.264Z,11.05
2022-12-23T06:58:42.517Z,11.04
2022-12-23T06:59:43.784Z,11.05
2022-12-23T07:00:45.085Z,11.05
2022-12-23T07:01:46.483Z,11.08
2022-12-23T07:02:48.046Z,11.11
2022-12-23T07:03:49.829Z,11.11
2022-12-23T07:04:51.163Z,11.09
2022-12-23T07:05:52.995Z,11.09
2022-12-23T07:06:54.204Z,11.09
2022-12-23T07:07:57.133Z,11.08
2022-12-23T07:08:58.445Z,11.06
2022-12-23T07:09:59.673Z,11.09
2022-12-23T07:11:01.551Z,11.08
2022-12-23T07:12:03.318Z,11.06
2022-12-23T07:13:04.601Z,11.06
2022-12-23T07:14:05.843Z,11.05
2022-12-23T07:15:07.389Z,11.06
2022-12-23T07:16:09.179Z,11.06
2022-12-23T07:17:10.565Z,11.03
2022-12-23T07:18:11.904Z,11.03
2022-12-23T07:19:13.171Z,11.03
2022-12-23T07:20:14.521Z,11.03
2022-12-23T07:21:26.437Z,11.03
2022-12-23T07:22:30.083Z,11.04
2022-12-23T07:23:31.404Z,11.05
2022-12-23T07:24:32.695Z,11.07
2022-12-23T07:25:33.926Z,11.07
2022-12-23T07:26:35.204Z,11.09
2022-12-23T07:27:36.698Z,11.08
2022-12-23T07:28:37.965Z,11.10
2022-12-23T07:29:39.232Z,11.09
2022-12-23T07:30:40.453Z,11.09
2022-12-23T07:31:41.762Z,11.09
2022-12-23T07:32:43.097Z,11.08
2022-12-23T07:33:44.357Z,11.10
2022-12-23T07:34:45.581Z,11.08
2022-12-23T07:35:46.828Z,11.08
2022-12-23T07:36:48.164Z,11.07
2022-12-23T07:37:53.021Z,11.07
2022-12-23T07:38:54.291Z,11.06
2022-12-23T07:39:55.534Z,11.08
2022-12-23T07:40:56.766Z,11.08
2022-12-23T07:42:24.887Z,11.07
2022-12-23T07:43:19.218Z,11.08
2022-12-23T07:44:20.427Z,11.09
2022-12-23T07:45:21.688Z,11.09
2022-12-23T07:46:22.976Z,11.10
2022-12-23T07:47:24.289Z,11.09
2022-12-23T07:48:25.495Z,11.10
2022-12-23T07:49:26.751Z,11.11
2022-12-23T07:50:28.302Z,11.11
2022-12-23T07:51:29.556Z,11.11
2022-12-23T07:52:30.822Z,11.10
2022-12-23T07:53:32.049Z,11.11
2022-12-23T07:54:33.298Z,11.10
2022-12-23T07:55:34.576Z,11.10
2022-12-23T07:56:35.788Z,11.13
2022-12-23T07:57:37.029Z,11.13
2022-12-23T07:58:38.323Z,11.13
2022-12-23T07:59:39.593Z,11.14
2022-12-23T08:00:40.841Z,11.14
2022-12-23T08:01:42.253Z,11.13
2022-12-23T08:02:43.778Z,11.13
2022-12-23T08:03:45.563Z,11.13
2022-12-23T08:04:46.878Z,11.14
2022-12-23T08:05:48.336Z,11.15
2022-12-23T08:06:49.571Z,11.16
2022-12-23T08:07:51.339Z,11.15
2022-12-23T08:08:52.593Z,11.14
2022-12-23T08:09:53.870Z,11.15
2022-12-23T08:10:59.246Z,11.15
2022-12-23T08:12:00.521Z,11.20
2022-12-23T08:13:01.759Z,11.19
2022-12-23T08:14:03.024Z,11.19
2022-12-23T08:15:04.571Z,11.19
2022-12-23T08:16:06.424Z,11.17
2022-12-23T08:17:07.856Z,11.18
2022-12-23T08:18:09.222Z,11.19
2022-12-23T08:19:10.912Z,11.16
2022-12-23T08:20:12.956Z,11.20
2022-12-23T08:21:15.584Z,11.18
2022-12-23T08:22:16.858Z,11.22
2022-12-23T08:23:24.402Z,11.21
2022-12-23T08:24:25.998Z,11.24
2022-12-23T08:25:27.222Z,11.24
2022-12-23T08:26:28.554Z,11.22
2022-12-23T08:27:29.868Z,11.29
2022-12-23T08:28:31.503Z,11.33
2022-12-23T08:29:36.354Z,11.32
2022-12-23T08:30:38.179Z,11.32
2022-12-23T08:31:39.475Z,11.33
2022-12-23T08:32:40.747Z,11.33
2022-12-23T08:33:42.750Z,11.35
2022-12-23T08:34:44.036Z,11.35
2022-12-23T08:35:45.301Z,11.37
2022-12-23T08:36:46.989Z,11.37
2022-12-23T08:37:51.301Z,11.38
2022-12-23T08:38:53.975Z,11.38
2022-12-23T08:39:55.251Z,11.38
2022-12-23T08:40:56.537Z,11.38
2022-12-23T08:41:58.108Z,11.38
2022-12-23T08:42:59.327Z,11.41
2022-12-23T08:44:00.728Z,11.41
2022-12-23T08:45:02.012Z,11.43
2022-12-23T08:46:03.871Z,11.45
2022-12-23T08:47:05.308Z,11.48
2022-12-23T08:48:06.614Z,11.48
2022-12-23T08:49:08.802Z,11.53
2022-12-23T08:50:10.145Z,11.53
2022-12-23T08:51:13.245Z,11.56
2022-12-23T08:52:14.581Z,11.61
2022-12-23T08:53:15.839Z,11.65
2022-12-23T08:54:17.092Z,11.70
2022-12-23T08:55:18.450Z,11.75
2022-12-23T08:56:21.404Z,11.76
2022-12-23T08:57:22.667Z,11.78
2022-12-23T08:58:23.917Z,11.80
2022-12-23T08:59:25.177Z,11.80
2022-12-23T09:00:26.433Z,11.91
2022-12-23T09:01:28.931Z,11.92
2022-12-23T09:02:30.513Z,11.93
2022-12-23T09:03:32.005Z,11.95
2022-12-23T09:04:33.406Z,11.96
2022-12-23T09:05:39.049Z,11.97
2022-12-23T09:06:41.564Z,11.97
2022-12-23T09:07:42.978Z,11.99
2022-12-23T09:08:45.894Z,12.00
2022-12-23T09:09:49.962Z,11.99
2022-12-23T09:10:51.334Z,12.00
2022-12-23T09:11:52.593Z,12.01
2022-12-23T09:12:56.961Z,12.01
2022-12-23T09:14:00.099Z,12.01
2022-12-23T09:15:01.429Z,11.99
2022-12-23T09:16:02.974Z,12.02
2022-12-23T09:17:04.237Z,12.01
2022-12-23T09:18:05.520Z,12.02
2022-12-23T09:19:06.804Z,12.02
2022-12-23T09:20:08.438Z,12.01
2022-12-23T09:21:17.352Z,12.01
2022-12-23T09:22:18.627Z,12.00
2022-12-23T09:23:19.869Z,12.01
2022-12-23T09:24:21.119Z,11.99
2022-12-23T09:25:22.351Z,12.00
2022-12-23T09:26:27.795Z,12.02
2022-12-23T09:27:29.060Z,12.06
2022-12-23T09:28:30.325Z,12.05
2022-12-23T09:29:31.576Z,12.05
2022-12-23T09:30:32.913Z,12.04
2022-12-23T09:31:37.223Z,12.05
2022-12-23T09:32:39.173Z,12.06
2022-12-23T09:33:42.148Z,12.07
2022-12-23T09:34:43.409Z,12.09
2022-12-23T09:35:44.782Z,12.10
2022-12-23T09:36:49.116Z,12.11
2022-12-23T09:37:53.129Z,12.11
2022-12-23T09:38:57.476Z,12.14
2022-12-23T09:39:59.073Z,12.13
2022-12-23T09:41:26.956Z,12.12
2022-12-23T09:42:40.839Z,12.13
2022-12-23T09:43:48.404Z,12.15
2022-12-23T09:44:59.542Z,12.15
2022-12-23T09:46:18.743Z,12.17
2022-12-23T09:47:24.321Z,12.19
2022-12-23T09:48:28.298Z,12.21
2022-12-23T09:49:33.631Z,12.23
2022-12-23T09:50:35.225Z,12.26
2022-12-23T09:51:36.544Z,12.30
2022-12-23T09:52:42.966Z,12.32
2022-12-23T09:53:44.240Z,12.35
2022-12-23T09:54:49.928Z,12.38
2022-12-23T09:55:57.268Z,12.40
2022-12-23T09:57:18.757Z,12.43
2022-12-23T09:58:31.653Z,12.44
2022-12-23T09:59:32.888Z,12.46
2022-12-23T10:00:38.964Z,12.47
2022-12-23T10:01:58.320Z,12.48
2022-12-23T10:02:59.998Z,12.48
2022-12-23T10:04:20.245Z,12.49
2022-12-23T10:05:24.362Z,12.48
2022-12-23T10:06:27.190Z,12.48
2022-12-23T10:07:28.453Z,12.47
2022-12-23T10:08:29.739Z,12.44
2022-12-23T10:09:32.839Z,12.45
2022-12-23T10:10:44.933Z,12.46
2022-12-23T10:11:47.545Z,12.45
2022-12-23T10:12:50.702Z,12.43
2022-12-23T10:14:10.577Z,12.42
2022-12-23T10:15:25.712Z,12.39
2022-12-23T10:16:34.383Z,12.40
2022-12-23T10:17:39.292Z,12.39
2022-12-23T10:18:55.503Z,12.39
2022-12-23T10:19:59.540Z,12.38
2022-12-23T10:21:05.869Z,12.37
2022-12-23T10:22:09.966Z,12.38
2022-12-23T10:23:16.216Z,12.40
2022-12-23T10:24:23.724Z,12.43
2022-12-23T10:25:33.221Z,12.43
2022-12-23T10:26:39.307Z,12.43
2022-12-23T10:27:41.658Z,12.44
2022-12-23T10:28:43.823Z,12.42
2022-12-23T10:29:45.107Z,12.42
2022-12-23T10:32:41.442Z,12.42
2022-12-23T10:33:48.839Z,12.43
2022-12-23T10:34:50.063Z,12.43
2022-12-23T10:35:51.313Z,12.44
2022-12-23T10:36:57.491Z,12.46
2022-12-23T10:38:12.906Z,12.47
2022-12-23T10:39:34.474Z,12.49
2022-12-23T10:41:08.889Z,12.51
2022-12-23T10:42:25.610Z,12.52
2022-12-23T10:43:26.853Z,12.53
2022-12-23T10:44:28.068Z,12.51
2022-12-23T10:45:47.628Z,12.50
2022-12-23T10:46:54.974Z,12.57
2022-12-23T10:48:15.047Z,12.57
2022-12-23T10:49:35.308Z,12.56
2022-12-23T10:50:55.409Z,12.56
2022-12-23T10:51:58.779Z,12.55
2022-12-23T10:53:03.006Z,12.56
2022-12-23T10:54:12.805Z,12.56
2022-12-23T10:55:24.277Z,12.55
2022-12-23T10:56:28.763Z,12.51
2022-12-23T10:57:32.178Z,12.53
2022-12-23T10:58:38.914Z,12.55
2022-12-23T10:59:40.193Z,12.55
2022-12-23T11:00:47.785Z,12.57
2022-12-23T11:01:52.965Z,12.57
2022-12-23T11:03:17.601Z,12.56
2022-12-23T11:04:36.494Z,12.52
2022-12-23T11:05:41.536Z,12.52
2022-12-23T11:06:44.425Z,12.55
2022-12-23T11:07:46.925Z,12.52
2022-12-23T11:08:48.541Z,12.55
2022-12-23T11:10:01.119Z,12.55
2022-12-23T11:11:02.374Z,12.53
2022-12-23T11:12:10.452Z,12.52
2022-12-23T11:13:25.303Z,12.55
2022-12-23T11:14:30.820Z,12.55
2022-12-23T11:15:39.246Z,12.55
2022-12-23T11:16:45.360Z,12.55
2022-12-23T11:17:57.053Z,12.56
2022-12-23T11:18:58.328Z,12.55
2022-12-23T11:20:13.505Z,12.58
2022-12-23T11:21:14.874Z,12.56
2022-12-23T11:22:23.604Z,12.53
2022-12-23T11:23:26.420Z,12.53
2022-12-23T11:24:28.694Z,12.56
2022-12-23T11:25:43.294Z,12.52
2022-12-23T11:26:49.829Z,12.46
2022-12-23T11:27:54.506Z,12.47
2022-12-23T11:28:59.175Z,12.47
2022-12-23T11:30:16.985Z,12.45
2022-12-23T11:31:28.365Z,12.46
2022-12-23T11:32:36.410Z,12.45
2022-12-23T11:33:40.014Z,12.45
2022-12-23T11:34:44.437Z,12.44
2022-12-23T11:35:45.781Z,12.43
2022-12-23T11:36:58.681Z,12.44
2022-12-23T11:38:12.869Z,12.43
2022-12-23T11:39:14.299Z,12.41
2022-12-23T11:40:26.858Z,12.42
2022-12-23T11:41:33.550Z,12.43
2022-12-23T11:42:34.981Z,12.44
2022-12-23T11:43:38.853Z,12.44
2022-12-23T11:44:42.777Z,12.43
2022-12-23T11:45:44.113Z,12.42
2022-12-23T11:46:45.699Z,12.41
2022-12-23T11:47:47.091Z,12.39
2022-12-23T11:48:54.401Z,12.43
2022-12-23T11:49:57.474Z,12.45
2022-12-23T11:51:02.841Z,12.43
2022-12-23T11:52:07.181Z,12.43
2022-12-23T11:53:11.306Z,12.42
2022-12-23T11:54:16.985Z,12.41
2022-12-23T11:55:25.738Z,12.40
2022-12-23T11:56:27.654Z,12.40
2022-12-23T11:57:37.152Z,12.40
2022-12-23T11:58:45.587Z,12.38
2022-12-23T11:59:48.333Z,12.38
2022-12-23T12:00:56.171Z,12.38
2022-12-23T12:01:59.171Z,12.37
2022-12-23T12:03:02.035Z,12.37
2022-12-23T12:04:06.072Z,12.38
2022-12-23T12:05:16.487Z,12.36
2022-12-23T12:06:19.052Z,12.38
2022-12-23T12:07:20.632Z,12.36
2022-12-23T12:08:25.664Z,12.34
2022-12-23T12:09:28.495Z,12.35
2022-12-23T12:10:31.712Z,12.36
2022-12-23T12:11:41.320Z,12.36
2022-12-23T12:12:42.746Z,12.37
2022-12-23T12:13:48.243Z,12.37
2022-12-23T12:14:54.094Z,12.36
2022-12-23T12:15:55.271Z,12.35
2022-12-23T12:17:04.761Z,12.35
2022-12-23T12:18:08.646Z,12.36
2022-12-23T12:19:19.114Z,12.35
2022-12-23T12:20:20.371Z,12.35
2022-12-23T12:21:24.508Z,12.36
2022-12-23T12:22:40.164Z,12.37
2022-12-23T12:24:17.175Z,12.38
2022-12-23T12:25:25.200Z,12.40
2022-12-23T12:26:28.263Z,12.42
2022-12-23T12:27:37.935Z,12.43
2022-12-23T12:28:41.967Z,12.43
2022-12-23T12:29:56.937Z,12.43
2022-12-23T12:31:03.429Z,12.46
2022-12-23T12:32:09.684Z,12.47
2022-12-23T12:33:30.710Z,12.47
2022-12-23T12:34:43.867Z,12.49
2022-12-23T12:35:53.870Z,12.48
2022-12-23T12:37:00.635Z,12.48
2022-12-23T12:38:10.543Z,12.50
2022-12-23T12:39:33.897Z,12.50
2022-12-23T12:40:40.873Z,12.51
2022-12-23T12:41:49.078Z,12.52
2022-12-23T12:43:13.949Z,12.52
2022-12-23T12:44:18.181Z,12.54
2022-12-23T12:45:37.861Z,12.57
2022-12-23T12:46:41.810Z,12.56
2022-12-23T12:48:09.942Z,12.55
2022-12-23T12:49:32.599Z,12.56
2022-12-23T12:50:39.040Z,12.61
2022-12-23T12:51:46.623Z,12.58
2022-12-23T12:52:50.187Z,12.57
2022-12-23T12:53:59.644Z,12.57
2022-12-23T12:55:11.954Z,12.53
2022-12-23T12:56:18.876Z,12.53
2022-12-23T12:57:20.982Z,12.53
2022-12-23T12:58:22.851Z,12.53
2022-12-23T12:59:26.267Z,12.52
2022-12-23T13:00:27.748Z,12.53
2022-12-23T13:01:31.805Z,12.51
2022-12-23T13:02:52.048Z,12.50
2022-12-23T13:04:12.365Z,12.49
2022-12-23T13:05:31.661Z,12.48
2022-12-23T13:06:51.902Z,12.45
2022-12-23T13:08:03.061Z,12.46
2022-12-23T13:09:13.904Z,12.44
2022-12-23T13:10:20.829Z,12.45
2022-12-23T13:11:42.370Z,12.42
2022-12-23T13:12:59.002Z,12.42
2022-12-23T13:14:12.553Z,12.41
2022-12-23T13:15:18.727Z,12.41
2022-12-23T13:16:38.699Z,12.40
2022-12-23T13:17:49.895Z,12.40
2022-12-23T13:18:51.085Z,12.39
2022-12-23T13:20:08.475Z,12.40
2022-12-23T13:21:17.985Z,12.41
2022-12-23T13:22:26.568Z,12.42
2022-12-23T13:23:50.972Z,12.41
2022-12-23T13:25:07.621Z,12.43
2022-12-23T13:26:24.086Z,12.44
2022-12-23T13:27:38.582Z,12.48
2022-12-23T13:28:39.815Z,12.46
2022-12-23T13:29:59.962Z,12.43
2022-12-23T13:31:07.144Z,12.44
2022-12-23T13:32:14.231Z,12.43
2022-12-23T13:33:15.485Z,12.42
2022-12-23T13:34:35.338Z,12.42
2022-12-23T13:36:04.946Z,12.39
2022-12-23T13:37:06.430Z,12.37
2022-12-23T13:38:30.941Z,12.38
2022-12-23T13:39:42.698Z,12.36
2022-12-23T13:40:46.748Z,12.36
2022-12-23T13:41:52.715Z,12.35
2022-12-23T13:42:59.716Z,12.34
2022-12-23T13:44:01.867Z,12.35
2022-12-23T13:45:03.943Z,12.40
2022-12-23T13:46:10.897Z,12.37
2022-12-23T13:47:24.332Z,12.35
2022-12-23T13:48:51.976Z,12.35
2022-12-23T13:50:05.294Z,12.36
2022-12-23T13:51:09.916Z,12.34
2022-12-23T13:52:21.247Z,12.33
2022-12-23T13:53:22.539Z,12.36
2022-12-23T13:54:30.027Z,12.38
2022-12-23T13:55:50.137Z,12.39
2022-12-23T13:56:54.413Z,12.42
2022-12-23T13:58:16.169Z,12.42
2022-12-23T13:59:17.387Z,12.45
2022-12-23T14:00:18.662Z,12.48